Time;durP1;ratioP1;P1;durP2;ratioP2;P2;SDS_P1;SDS_P2;PMS_P1;PMS_P2;Temp;Humidity;BMP_temperature;BMP_pressure;BME280_temperature;BME280_humidity;BME280_pressure;Samples;Min_cycle;Max_cycle;Signal;HPM_P1;HPM_P2
2022/01/17 00:01:06;;;;;;;19.42;11.75;;;;;;;;;;5000862;28;20041;-78
2022/01/17 00:03:32;;;;;;;18.77;11.90;;;;;;;;;;4991545;28;20039;-79
2022/01/17 00:05:59;;;;;;;19.38;11.63;;;;;;;;;;5001912;28;20125;-78
2022/01/17 00:08:25;;;;;;;21.50;13.50;;;;;;;;;;5001760;28;20035;-80
2022/01/17 00:10:51;;;;;;;22.65;13.85;;;;;;;;;;5001278;28;20485;-79
2022/01/17 00:13:27;;;;;;;19.95;13.05;;;;;;;;;;4996878;28;20035;-78
2022/01/17 00:16:02;;;;;;;23.48;13.02;;;;;;;;;;4983385;28;20050;-78
2022/01/17 00:21:04;;;;;;;19.65;12.75;;;;;;;;;;5000463;28;20034;-79
2022/01/17 00:23:30;;;;;;;21.08;12.68;;;;;;;;;;5000779;28;20105;-78
2022/01/17 00:25:57;;;;;;;22.60;13.80;;;;;;;;;;5001312;28;20031;-78
2022/01/17 00:28:23;;;;;;;19.70;12.70;;;;;;;;;;4997854;28;20040;-78
2022/01/17 00:30:49;;;;;;;20.85;12.68;;;;;;;;;;4985360;28;20030;-78
2022/01/17 00:33:15;;;;;;;20.27;12.35;;;;;;;;;;4994488;28;20113;-80
2022/01/17 00:35:43;;;;;;;20.13;11.93;;;;;;;;;;5004899;28;20030;-78
2022/01/17 00:38:12;;;;;;;22.63;13.48;;;;;;;;;;4987490;28;20038;-80
2022/01/17 00:40:40;;;;;;;21.65;12.73;;;;;;;;;;4993239;28;20378;-79
2022/01/17 00:43:07;;;;;;;20.08;12.38;;;;;;;;;;5001553;28;20057;-79
2022/01/17 00:45:35;;;;;;;20.52;12.13;;;;;;;;;;4985114;28;20540;-80
2022/01/17 00:48:01;;;;;;;20.35;13.18;;;;;;;;;;4986788;28;20027;-78
2022/01/17 00:50:28;;;;;;;18.75;12.23;;;;;;;;;;5005353;28;20085;-78
2022/01/17 00:52:55;;;;;;;19.23;11.20;;;;;;;;;;4995734;28;20026;-79
2022/01/17 00:55:22;;;;;;;22.15;13.50;;;;;;;;;;5009001;28;20033;-79
2022/01/17 00:57:48;;;;;;;20.85;13.07;;;;;;;;;;4992728;28;20493;-79
2022/01/17 01:00:17;;;;;;;22.58;12.98;;;;;;;;;;4987118;28;20023;-79
2022/01/17 01:02:44;;;;;;;19.95;12.05;;;;;;;;;;4985820;28;20058;-80
2022/01/17 01:05:12;;;;;;;20.35;11.98;;;;;;;;;;4990949;28;20042;-79
2022/01/17 01:07:39;;;;;;;19.73;13.23;;;;;;;;;;5005393;28;20125;-79
2022/01/17 01:10:10;;;;;;;18.08;11.68;;;;;;;;;;5006058;28;20098;-78
2022/01/17 01:12:38;;;;;;;23.33;12.32;;;;;;;;;;4992112;28;20029;-80
2022/01/17 01:15:06;;;;;;;20.55;13.18;;;;;;;;;;4987911;28;20528;-80
2022/01/17 01:17:36;;;;;;;20.75;12.32;;;;;;;;;;4985461;28;20396;-80
2022/01/17 01:28:19;;;;;;;20.23;12.52;;;;;;;;;;5003342;28;20046;-79
2022/01/17 01:30:49;;;;;;;24.50;12.23;;;;;;;;;;4996239;28;20027;-80
2022/01/17 01:33:31;;;;;;;18.27;11.27;;;;;;;;;;4995761;28;20026;-79
2022/01/17 01:36:03;;;;;;;16.10;10.07;;;;;;;;;;5005632;28;20022;-79
2022/01/17 01:38:29;;;;;;;18.25;9.93;;;;;;;;;;5003870;28;20057;-78
2022/01/17 01:40:56;;;;;;;17.05;10.15;;;;;;;;;;4986422;28;20036;-79
2022/01/17 01:43:22;;;;;;;16.13;9.85;;;;;;;;;;4986587;28;20363;-80
2022/01/17 01:45:49;;;;;;;16.73;9.38;;;;;;;;;;4995097;28;20027;-78
2022/01/17 01:48:19;;;;;;;15.52;8.77;;;;;;;;;;4993522;28;20023;-80
2022/01/17 01:50:46;;;;;;;16.23;9.45;;;;;;;;;;4998008;28;20037;-79
2022/01/17 01:53:12;;;;;;;17.85;10.27;;;;;;;;;;5004493;28;20014;-79
2022/01/17 01:55:38;;;;;;;18.30;9.52;;;;;;;;;;5000436;28;20081;-80
2022/01/17 01:58:08;;;;;;;16.45;10.27;;;;;;;;;;5001260;28;20042;-79
2022/01/17 02:00:34;;;;;;;17.63;10.07;;;;;;;;;;5004962;28;20030;-79
2022/01/17 02:03:00;;;;;;;17.10;10.60;;;;;;;;;;5005626;28;20027;-79
2022/01/17 02:05:27;;;;;;;16.23;10.20;;;;;;;;;;5004427;28;20053;-79
2022/01/17 02:07:53;;;;;;;16.85;9.23;;;;;;;;;;5000188;28;20034;-79
2022/01/17 02:10:19;;;;;;;16.35;9.35;;;;;;;;;;4993475;28;20099;-80
2022/01/17 02:12:45;;;;;;;18.08;9.60;;;;;;;;;;5003494;28;20456;-78
2022/01/17 02:15:15;;;;;;;18.02;9.95;;;;;;;;;;4995856;28;20378;-80
2022/01/17 02:17:55;;;;;;;14.20;9.30;;;;;;;;;;5003920;28;20078;-80
2022/01/17 02:20:29;;;;;;;16.45;9.77;;;;;;;;;;5002266;28;20069;-82
2022/01/17 02:22:57;;;;;;;15.80;10.30;;;;;;;;;;5001911;28;20026;-78
2022/01/17 02:25:23;;;;;;;17.50;10.43;;;;;;;;;;4996611;28;20026;-79
2022/01/17 02:27:49;;;;;;;16.60;10.05;;;;;;;;;;4990842;28;20066;-78
2022/01/17 02:30:22;;;;;;;16.90;10.20;;;;;;;;;;5003389;28;20046;-79
2022/01/17 02:32:48;;;;;;;16.08;11.07;;;;;;;;;;5004235;28;20022;-81
2022/01/17 02:35:21;;;;;;;15.05;8.63;;;;;;;;;;5000766;28;20022;-80
2022/01/17 02:37:48;;;;;;;16.23;9.55;;;;;;;;;;4987673;28;20022;-79
2022/01/17 02:40:15;;;;;;;14.65;9.55;;;;;;;;;;5002248;28;20029;-78
2022/01/17 02:42:41;;;;;;;16.02;9.07;;;;;;;;;;5003475;28;20018;-79
2022/01/17 02:45:19;;;;;;;14.20;9.20;;;;;;;;;;5001899;28;20045;-78
2022/01/17 02:47:45;;;;;;;18.20;10.13;;;;;;;;;;5003926;28;20027;-79
2022/01/17 02:50:12;;;;;;;16.40;9.55;;;;;;;;;;4989292;28;20023;-80
2022/01/17 02:52:39;;;;;;;14.02;9.55;;;;;;;;;;5002205;28;20041;-77
2022/01/17 02:55:05;;;;;;;14.45;9.10;;;;;;;;;;5001950;28;20086;-78
2022/01/17 02:57:34;;;;;;;17.02;9.75;;;;;;;;;;5004136;28;20046;-78
2022/01/17 03:00:03;;;;;;;16.38;10.75;;;;;;;;;;4988338;28;20034;-79
2022/01/17 03:02:29;;;;;;;16.27;10.80;;;;;;;;;;5005470;28;20026;-78
2022/01/17 03:04:58;;;;;;;18.27;11.52;;;;;;;;;;5002850;28;20022;-78
2022/01/17 03:07:25;;;;;;;14.77;9.15;;;;;;;;;;4987269;28;20027;-79
2022/01/17 03:10:02;;;;;;;16.40;10.55;;;;;;;;;;5004643;28;20132;-79
2022/01/17 03:12:30;;;;;;;15.27;10.52;;;;;;;;;;4987354;28;20023;-79
2022/01/17 03:14:56;;;;;;;16.08;10.88;;;;;;;;;;4984027;28;20113;-79
2022/01/17 03:17:22;;;;;;;17.45;10.20;;;;;;;;;;4988918;28;20026;-79
2022/01/17 03:19:48;;;;;;;14.43;8.23;;;;;;;;;;5000107;28;20023;-79
2022/01/17 03:22:14;;;;;;;15.82;9.30;;;;;;;;;;5002571;28;20038;-79
2022/01/17 03:24:41;;;;;;;15.50;8.48;;;;;;;;;;4984513;28;20034;-80
2022/01/17 03:27:09;;;;;;;13.95;10.00;;;;;;;;;;4982270;28;20031;-77
2022/01/17 03:29:35;;;;;;;16.50;9.48;;;;;;;;;;4981661;28;20062;-78
2022/01/17 03:32:02;;;;;;;15.32;8.38;;;;;;;;;;4987231;28;20045;-78
2022/01/17 03:34:28;;;;;;;14.40;9.02;;;;;;;;;;5001597;28;20085;-78
2022/01/17 03:36:54;;;;;;;12.95;8.13;;;;;;;;;;4984553;28;20548;-78
2022/01/17 03:39:20;;;;;;;11.63;8.10;;;;;;;;;;4982528;28;20030;-78
2022/01/17 03:41:46;;;;;;;10.73;7.10;;;;;;;;;;4984785;28;20024;-77
2022/01/17 03:44:12;;;;;;;12.27;7.18;;;;;;;;;;4985410;28;20034;-79
2022/01/17 03:46:39;;;;;;;12.45;7.93;;;;;;;;;;4983772;28;20054;-78
2022/01/17 03:49:05;;;;;;;13.00;7.55;;;;;;;;;;4994077;28;20037;-77
2022/01/17 03:51:31;;;;;;;10.90;6.75;;;;;;;;;;4998522;28;20157;-77
2022/01/17 03:53:57;;;;;;;16.38;7.75;;;;;;;;;;5001350;28;20034;-78
2022/01/17 03:56:24;;;;;;;15.25;9.40;;;;;;;;;;4988453;28;21019;-78
2022/01/17 03:58:50;;;;;;;15.02;9.27;;;;;;;;;;4986444;28;20034;-79
2022/01/17 04:01:16;;;;;;;13.45;8.95;;;;;;;;;;4989725;28;20456;-78
2022/01/17 04:03:43;;;;;;;15.35;8.70;;;;;;;;;;4994827;28;20031;-78
2022/01/17 04:06:09;;;;;;;12.95;8.52;;;;;;;;;;4993444;28;20541;-79
2022/01/17 04:08:35;;;;;;;13.00;8.77;;;;;;;;;;4983868;28;20095;-79
2022/01/17 04:11:02;;;;;;;13.85;9.43;;;;;;;;;;4986042;28;20042;-78
2022/01/17 04:13:28;;;;;;;14.98;8.95;;;;;;;;;;4988406;28;20076;-79
2022/01/17 04:15:55;;;;;;;12.40;7.63;;;;;;;;;;4990285;28;20031;-79
2022/01/17 04:18:23;;;;;;;12.93;7.18;;;;;;;;;;5002134;28;20057;-79
2022/01/17 04:20:50;;;;;;;12.60;6.90;;;;;;;;;;4992408;28;20041;-79
2022/01/17 04:23:18;;;;;;;12.73;7.38;;;;;;;;;;4980283;28;20037;-79
2022/01/17 04:25:44;;;;;;;12.63;7.07;;;;;;;;;;4981881;28;20182;-79
2022/01/17 04:28:12;;;;;;;11.68;7.07;;;;;;;;;;4995424;28;20069;-79
2022/01/17 04:30:38;;;;;;;13.27;8.52;;;;;;;;;;4997150;28;20023;-78
2022/01/17 04:33:05;;;;;;;11.27;6.78;;;;;;;;;;5000554;28;20029;-78
2022/01/17 04:35:35;;;;;;;11.70;7.25;;;;;;;;;;4990600;28;20110;-79
2022/01/17 04:38:02;;;;;;;11.65;7.13;;;;;;;;;;4983834;28;20046;-80
2022/01/17 04:40:37;;;;;;;14.20;7.40;;;;;;;;;;4984263;28;20088;-77
2022/01/17 04:43:19;;;;;;;13.75;9.18;;;;;;;;;;4987833;28;20029;-80
2022/01/17 04:45:46;;;;;;;14.30;9.27;;;;;;;;;;4986665;28;20444;-79
2022/01/17 04:48:13;;;;;;;13.45;8.45;;;;;;;;;;4988926;28;20377;-78
2022/01/17 04:50:39;;;;;;;12.95;8.70;;;;;;;;;;4990503;28;20038;-80
2022/01/17 04:53:07;;;;;;;15.27;8.13;;;;;;;;;;4982996;28;20022;-79
2022/01/17 04:55:36;;;;;;;12.02;7.88;;;;;;;;;;4995759;28;20027;-78
2022/01/17 04:58:02;;;;;;;13.50;8.40;;;;;;;;;;5001280;28;20042;-78
2022/01/17 05:00:29;;;;;;;12.95;8.13;;;;;;;;;;4999121;28;20037;-79
2022/01/17 05:02:55;;;;;;;14.55;8.35;;;;;;;;;;4999568;28;20023;-79
2022/01/17 05:05:22;;;;;;;14.57;8.95;;;;;;;;;;5000423;28;20034;-77
2022/01/17 05:07:48;;;;;;;14.65;8.55;;;;;;;;;;4999984;28;20041;-78
2022/01/17 05:10:15;;;;;;;14.07;9.63;;;;;;;;;;4996178;28;20026;-78
2022/01/17 05:12:42;;;;;;;17.48;9.57;;;;;;;;;;4983730;28;20119;-78
2022/01/17 05:15:23;;;;;;;15.95;8.32;;;;;;;;;;4992428;28;20053;-79
2022/01/17 05:17:58;;;;;;;16.27;9.85;;;;;;;;;;4992507;28;20103;-80
2022/01/17 05:20:25;;;;;;;17.27;11.20;;;;;;;;;;5004271;28;20017;-80
2022/01/17 05:22:55;;;;;;;18.83;11.05;;;;;;;;;;5002675;28;20038;-79
2022/01/17 05:25:24;;;;;;;15.13;10.70;;;;;;;;;;4997460;28;20019;-78
2022/01/17 05:27:51;;;;;;;16.98;11.15;;;;;;;;;;4997046;28;20070;-80
2022/01/17 05:30:20;;;;;;;19.50;11.85;;;;;;;;;;4989798;28;20059;-80
2022/01/17 05:32:46;;;;;;;19.83;12.98;;;;;;;;;;4989575;28;20030;-82
2022/01/17 05:35:15;;;;;;;18.38;12.57;;;;;;;;;;4996177;28;20033;-80
2022/01/17 05:37:42;;;;;;;19.77;12.40;;;;;;;;;;4998647;28;20030;-81
2022/01/17 05:40:09;;;;;;;20.95;11.20;;;;;;;;;;4996984;28;20023;-79
2022/01/17 05:42:36;;;;;;;20.73;11.18;;;;;;;;;;5000458;28;20062;-79
2022/01/17 05:45:03;;;;;;;19.85;11.50;;;;;;;;;;4994262;28;20058;-80
2022/01/17 05:47:29;;;;;;;16.38;9.70;;;;;;;;;;4993310;28;20170;-79
2022/01/17 05:49:57;;;;;;;16.70;10.13;;;;;;;;;;4993412;28;20022;-79
2022/01/17 05:52:24;;;;;;;18.00;10.38;;;;;;;;;;4998147;28;20073;-79
2022/01/17 05:54:50;;;;;;;16.83;12.02;;;;;;;;;;5002612;28;20053;-79
2022/01/17 05:57:17;;;;;;;17.85;12.25;;;;;;;;;;4988486;28;20073;-80
2022/01/17 05:59:44;;;;;;;17.88;11.88;;;;;;;;;;4996788;28;20037;-79
2022/01/17 06:02:10;;;;;;;16.80;11.27;;;;;;;;;;4995325;28;20027;-80
2022/01/17 06:04:37;;;;;;;18.42;11.57;;;;;;;;;;4991281;28;20022;-78
2022/01/17 06:07:04;;;;;;;19.55;12.75;;;;;;;;;;4994887;28;20046;-81
2022/01/17 06:09:34;;;;;;;14.60;9.45;;;;;;;;;;4998954;28;20034;-79
2022/01/17 06:12:01;;;;;;;18.10;10.35;;;;;;;;;;5000602;28;20030;-78
2022/01/17 06:14:32;;;;;;;16.63;10.88;;;;;;;;;;4991287;28;20085;-80
2022/01/17 06:16:58;;;;;;;16.10;10.15;;;;;;;;;;4985154;28;20434;-82
2022/01/17 06:19:24;;;;;;;18.67;11.45;;;;;;;;;;4990572;28;20022;-79
2022/01/17 06:21:50;;;;;;;19.13;10.88;;;;;;;;;;4987437;28;20023;-80
2022/01/17 06:24:17;;;;;;;17.73;11.20;;;;;;;;;;4991515;28;20082;-79
2022/01/17 06:26:43;;;;;;;18.88;12.20;;;;;;;;;;5001187;28;20038;-79
2022/01/17 06:29:10;;;;;;;19.17;11.82;;;;;;;;;;5003251;28;20054;-79
2022/01/17 06:31:37;;;;;;;17.15;9.90;;;;;;;;;;4991650;28;20030;-80
2022/01/17 06:34:03;;;;;;;18.33;10.27;;;;;;;;;;4988724;28;20041;-80
2022/01/17 06:36:30;;;;;;;16.33;11.02;;;;;;;;;;4993999;28;20062;-81
2022/01/17 06:38:56;;;;;;;15.50;10.50;;;;;;;;;;4990109;28;20026;-80
2022/01/17 06:41:23;;;;;;;17.80;11.40;;;;;;;;;;4989936;28;20473;-80
2022/01/17 06:43:49;;;;;;;15.60;10.63;;;;;;;;;;4999781;28;20034;-81
2022/01/17 06:46:16;;;;;;;14.98;9.48;;;;;;;;;;4993469;28;20031;-80
2022/01/17 06:48:42;;;;;;;17.67;10.88;;;;;;;;;;4987596;28;20410;-82
2022/01/17 06:51:09;;;;;;;16.20;10.02;;;;;;;;;;4984650;28;20034;-80
2022/01/17 06:53:35;;;;;;;17.55;11.45;;;;;;;;;;4989643;28;20437;-80
2022/01/17 06:56:01;;;;;;;17.77;11.63;;;;;;;;;;4990376;28;20019;-80
2022/01/17 06:58:28;;;;;;;19.25;12.52;;;;;;;;;;4995349;28;20081;-81
2022/01/17 07:00:54;;;;;;;16.90;10.68;;;;;;;;;;4990473;28;20019;-81
2022/01/17 07:03:20;;;;;;;15.57;10.40;;;;;;;;;;4998953;28;20102;-80
2022/01/17 07:05:46;;;;;;;18.55;11.38;;;;;;;;;;5000929;28;20030;-81
2022/01/17 07:08:12;;;;;;;16.67;10.68;;;;;;;;;;5000523;28;20025;-81
2022/01/17 07:10:38;;;;;;;15.32;10.35;;;;;;;;;;5000478;28;20484;-80
2022/01/17 07:13:04;;;;;;;14.57;9.70;;;;;;;;;;4994930;28;20023;-79
2022/01/17 07:15:31;;;;;;;16.98;11.18;;;;;;;;;;4985159;28;20086;-79
2022/01/17 07:17:57;;;;;;;17.52;10.90;;;;;;;;;;4983113;28;20029;-80
2022/01/17 07:20:23;;;;;;;16.08;10.15;;;;;;;;;;4991041;28;20026;-79
2022/01/17 07:22:49;;;;;;;17.45;10.20;;;;;;;;;;4999007;28;20528;-79
2022/01/17 07:25:15;;;;;;;17.98;10.05;;;;;;;;;;5000097;28;20031;-78
2022/01/17 07:27:42;;;;;;;16.50;11.23;;;;;;;;;;4999716;28;20034;-80
2022/01/17 07:30:12;;;;;;;15.25;10.68;;;;;;;;;;5000190;28;20338;-80
2022/01/17 07:32:38;;;;;;;14.68;9.88;;;;;;;;;;4997129;28;20049;-80
2022/01/17 07:35:06;;;;;;;17.90;9.20;;;;;;;;;;4980954;28;20037;-79
2022/01/17 07:37:32;;;;;;;15.10;10.38;;;;;;;;;;4983560;28;20030;-80
2022/01/17 07:39:58;;;;;;;17.65;10.68;;;;;;;;;;4979222;28;20106;-78
2022/01/17 07:42:24;;;;;;;17.45;11.40;;;;;;;;;;4979843;28;20021;-77
2022/01/17 07:44:54;;;;;;;15.65;10.18;;;;;;;;;;4980899;28;20027;-80
2022/01/17 07:47:37;;;;;;;17.10;11.60;;;;;;;;;;4995948;28;20023;-79
2022/01/17 07:50:03;;;;;;;19.02;11.07;;;;;;;;;;4986568;28;20093;-77
2022/01/17 07:52:29;;;;;;;19.80;11.73;;;;;;;;;;5000242;28;20109;-79
2022/01/17 07:54:56;;;;;;;14.98;10.23;;;;;;;;;;5000284;28;20026;-80
2022/01/17 07:57:23;;;;;;;16.45;9.55;;;;;;;;;;4993472;28;20116;-80
2022/01/17 07:59:49;;;;;;;15.65;9.45;;;;;;;;;;4978923;28;20433;-79
2022/01/17 08:02:15;;;;;;;18.23;10.85;;;;;;;;;;4988998;28;20037;-80
2022/01/17 08:04:41;;;;;;;18.55;11.00;;;;;;;;;;4998285;28;20089;-79
2022/01/17 08:07:07;;;;;;;15.68;10.27;;;;;;;;;;4998653;28;20026;-80
2022/01/17 08:09:34;;;;;;;16.77;10.77;;;;;;;;;;4999784;28;20025;-82
2022/01/17 08:12:00;;;;;;;20.40;11.82;;;;;;;;;;4980044;28;20034;-82
2022/01/17 08:14:27;;;;;;;18.83;11.45;;;;;;;;;;4981260;28;20035;-81
2022/01/17 08:16:53;;;;;;;18.30;11.07;;;;;;;;;;4996646;28;20030;-79
2022/01/17 08:19:21;;;;;;;17.73;10.60;;;;;;;;;;4999027;28;20088;-78
2022/01/17 08:21:48;;;;;;;20.05;11.35;;;;;;;;;;4997255;28;20094;-79
2022/01/17 08:24:15;;;;;;;20.10;13.20;;;;;;;;;;4981284;28;20023;-78
2022/01/17 08:26:43;;;;;;;17.75;12.70;;;;;;;;;;4978745;28;20031;-77
2022/01/17 08:29:12;;;;;;;21.52;11.63;;;;;;;;;;4978728;28;20023;-77
2022/01/17 08:31:39;;;;;;;18.38;10.10;;;;;;;;;;4978449;28;20038;-78
2022/01/17 08:34:05;;;;;;;19.40;11.23;;;;;;;;;;4980124;28;20389;-78
2022/01/17 08:36:31;;;;;;;17.77;10.88;;;;;;;;;;4996948;28;20461;-79
2022/01/17 08:38:57;;;;;;;18.13;10.65;;;;;;;;;;4983158;28;20082;-78
2022/01/17 08:41:26;;;;;;;15.90;9.77;;;;;;;;;;4996771;28;20081;-79
2022/01/17 08:43:52;;;;;;;15.88;10.27;;;;;;;;;;4999169;28;20031;-81
2022/01/17 08:46:19;;;;;;;15.00;10.25;;;;;;;;;;4999889;28;20072;-79
2022/01/17 08:48:45;;;;;;;15.38;10.73;;;;;;;;;;4999336;28;20033;-79
2022/01/17 08:51:11;;;;;;;16.83;10.85;;;;;;;;;;5000042;28;20022;-80
2022/01/17 08:53:39;;;;;;;14.85;9.15;;;;;;;;;;4984928;28;20033;-81
2022/01/17 08:56:05;;;;;;;14.20;9.85;;;;;;;;;;4982525;28;20035;-81
2022/01/17 08:58:32;;;;;;;16.25;9.93;;;;;;;;;;4989528;28;20141;-78
2022/01/17 09:00:58;;;;;;;13.27;9.32;;;;;;;;;;4980633;28;20022;-78
2022/01/17 09:03:24;;;;;;;13.05;8.68;;;;;;;;;;4980006;28;20038;-78
2022/01/17 09:05:51;;;;;;;15.63;9.52;;;;;;;;;;4981913;28;20054;-81
2022/01/17 09:08:18;;;;;;;16.38;8.70;;;;;;;;;;4996256;28;20030;-78
2022/01/17 09:10:44;;;;;;;14.50;7.75;;;;;;;;;;4997588;28;20023;-79
2022/01/17 09:13:10;;;;;;;16.40;8.35;;;;;;;;;;4979482;28;20109;-79
2022/01/17 09:15:37;;;;;;;15.60;8.18;;;;;;;;;;4982561;28;20026;-79
2022/01/17 09:18:04;;;;;;;11.63;8.27;;;;;;;;;;4983521;28;20026;-80
2022/01/17 09:20:34;;;;;;;11.88;7.00;;;;;;;;;;4997665;28;20054;-78
2022/01/17 09:23:00;;;;;;;15.38;8.40;;;;;;;;;;5001320;28;20019;-80
2022/01/17 09:25:26;;;;;;;12.13;7.50;;;;;;;;;;4981700;28;20038;-80
2022/01/17 09:27:52;;;;;;;14.63;7.88;;;;;;;;;;4982429;28;20485;-79
2022/01/17 09:30:19;;;;;;;13.05;8.57;;;;;;;;;;4982987;28;20060;-79
2022/01/17 09:32:46;;;;;;;12.55;7.20;;;;;;;;;;4984376;28;20019;-80
2022/01/17 09:35:12;;;;;;;13.20;7.55;;;;;;;;;;5001180;28;20030;-79
2022/01/17 09:37:39;;;;;;;12.65;8.02;;;;;;;;;;4993712;28;20168;-79
2022/01/17 09:40:06;;;;;;;12.43;7.25;;;;;;;;;;5002724;28;20058;-80
2022/01/17 09:42:36;;;;;;;15.50;7.63;;;;;;;;;;5003681;28;20027;-79
2022/01/17 09:45:10;;;;;;;15.50;7.97;;;;;;;;;;5005810;28;20037;-79
2022/01/17 09:47:37;;;;;;;14.27;8.10;;;;;;;;;;4997524;28;20034;-79
2022/01/17 09:50:06;;;;;;;13.93;7.60;;;;;;;;;;4994872;28;20109;-80
2022/01/17 09:52:36;;;;;;;13.57;7.55;;;;;;;;;;5003383;28;20046;-80
2022/01/17 09:55:05;;;;;;;11.27;7.45;;;;;;;;;;4988235;28;20504;-79
2022/01/17 09:57:32;;;;;;;11.48;7.38;;;;;;;;;;4988962;28;20492;-79
2022/01/17 09:59:58;;;;;;;14.02;8.32;;;;;;;;;;5001017;28;20050;-78
2022/01/17 10:02:24;;;;;;;13.50;6.93;;;;;;;;;;4982984;28;20549;-79
2022/01/17 10:05:06;;;;;;;16.60;9.07;;;;;;;;;;5000920;28;20026;-80
2022/01/17 10:07:53;;;;;;;13.55;7.53;;;;;;;;;;4988808;28;20026;-78
2022/01/17 10:10:42;;;;;;;11.60;7.43;;;;;;;;;;4996932;28;20023;-79
2022/01/17 10:13:09;;;;;;;12.48;7.80;;;;;;;;;;4986404;28;20023;-80
2022/01/17 10:15:46;;;;;;;15.38;9.45;;;;;;;;;;4992751;28;20090;-79
2022/01/17 10:18:31;;;;;;;12.25;8.25;;;;;;;;;;5002302;28;20033;-80
2022/01/17 10:21:06;;;;;;;12.07;7.45;;;;;;;;;;4983956;28;20035;-79
2022/01/17 10:37:12;;;;;;;12.77;8.05;;;;;;;;;;4992886;28;20037;-79
2022/01/17 10:40:00;;;;;;;12.05;7.40;;;;;;;;;;4994173;28;20088;-80
2022/01/17 10:42:28;;;;;;;10.15;7.35;;;;;;;;;;4988896;28;20315;-80
2022/01/17 10:44:54;;;;;;;11.43;7.20;;;;;;;;;;5000635;28;20037;-79
2022/01/17 10:47:23;;;;;;;14.13;7.03;;;;;;;;;;4999851;28;20035;-80
2022/01/17 10:49:59;;;;;;;12.07;8.48;;;;;;;;;;4996885;28;20109;-79
2022/01/17 10:52:33;;;;;;;12.55;7.90;;;;;;;;;;4990326;28;20050;-79
2022/01/17 10:55:11;;;;;;;12.30;6.47;;;;;;;;;;4994029;28;20030;-78
2022/01/17 10:57:39;;;;;;;14.02;7.90;;;;;;;;;;4994947;28;20038;-79
2022/01/17 11:00:08;;;;;;;10.48;7.60;;;;;;;;;;4996029;28;20030;-78
2022/01/17 11:02:35;;;;;;;11.68;7.55;;;;;;;;;;5010220;28;20053;-78
2022/01/17 11:05:06;;;;;;;13.48;7.53;;;;;;;;;;4993785;28;20042;-79
2022/01/17 11:07:38;;;;;;;13.10;7.20;;;;;;;;;;4992370;28;20021;-81
2022/01/17 11:10:07;;;;;;;12.52;7.85;;;;;;;;;;4991684;28;20035;-80
2022/01/17 11:12:34;;;;;;;12.23;6.53;;;;;;;;;;4979844;28;20025;-80
2022/01/17 11:15:01;;;;;;;11.32;6.72;;;;;;;;;;4995285;28;20030;-79
2022/01/17 11:17:34;;;;;;;17.75;7.70;;;;;;;;;;4997266;28;20022;-79
2022/01/17 11:22:31;;;;;;;8.95;5.93;;;;;;;;;;4997463;28;20535;-79
2022/01/17 11:24:58;;;;;;;14.82;8.77;;;;;;;;;;4988438;28;20038;-80
2022/01/17 11:27:24;;;;;;;10.15;6.50;;;;;;;;;;5009407;28;20058;-79
2022/01/17 11:29:51;;;;;;;12.35;6.88;;;;;;;;;;4989570;28;20089;-80
2022/01/17 11:32:17;;;;;;;10.50;6.28;;;;;;;;;;4980281;28;20026;-79
2022/01/17 11:34:44;;;;;;;10.32;6.43;;;;;;;;;;4981423;28;20031;-80
2022/01/17 11:37:10;;;;;;;11.60;6.28;;;;;;;;;;4979591;28;20019;-80
2022/01/17 11:39:50;;;;;;;12.90;7.22;;;;;;;;;;4980006;28;20058;-82
2022/01/17 11:42:33;;;;;;;9.93;6.07;;;;;;;;;;4980824;28;20030;-80
2022/01/17 11:45:00;;;;;;;11.98;6.97;;;;;;;;;;4994601;28;20616;-79
2022/01/17 11:47:51;;;;;;;12.35;6.00;;;;;;;;;;4995356;28;20094;-79
2022/01/17 11:53:20;;;;;;;10.07;6.13;;;;;;;;;;4980300;28;20038;-80
2022/01/17 11:55:47;;;;;;;9.07;5.40;;;;;;;;;;4982296;28;20038;-80
2022/01/17 11:58:26;;;;;;;11.00;6.10;;;;;;;;;;4980470;28;20441;-80
2022/01/17 12:01:01;;;;;;;9.77;5.95;;;;;;;;;;4980345;28;20023;-81
2022/01/17 12:03:30;;;;;;;9.98;5.85;;;;;;;;;;4996686;28;20061;-80
2022/01/17 12:05:57;;;;;;;11.65;6.78;;;;;;;;;;4998916;28;20027;-78
2022/01/17 12:08:25;;;;;;;10.18;6.20;;;;;;;;;;4999572;28;20027;-82
2022/01/17 12:10:51;;;;;;;11.25;6.63;;;;;;;;;;5001283;28;20026;-80
2022/01/17 12:13:23;;;;;;;11.15;6.60;;;;;;;;;;4997619;28;20151;-79
2022/01/17 12:16:11;;;;;;;12.43;7.47;;;;;;;;;;4996629;28;20034;-80
2022/01/17 12:18:38;;;;;;;8.23;5.05;;;;;;;;;;4998911;28;20088;-79
2022/01/17 12:21:23;;;;;;;13.77;6.80;;;;;;;;;;4998566;28;20027;-79
2022/01/17 12:23:50;;;;;;;9.88;6.03;;;;;;;;;;4980246;28;20555;-78
2022/01/17 12:26:32;;;;;;;12.32;7.03;;;;;;;;;;4997780;28;20036;-80
2022/01/17 12:28:59;;;;;;;11.17;5.73;;;;;;;;;;5004135;28;20029;-79
2022/01/17 12:31:38;;;;;;;11.07;5.78;;;;;;;;;;5002496;28;20129;-80
2022/01/17 12:34:24;;;;;;;8.77;5.80;;;;;;;;;;4993340;28;20033;-80
2022/01/17 12:37:03;;;;;;;13.00;6.32;;;;;;;;;;4998177;28;20105;-80
2022/01/17 12:39:30;;;;;;;10.77;6.78;;;;;;;;;;4982514;28;20404;-79
2022/01/17 12:42:00;;;;;;;9.43;5.97;;;;;;;;;;4986911;28;20018;-80
2022/01/17 12:44:26;;;;;;;11.52;5.90;;;;;;;;;;5000312;28;20544;-80
2022/01/17 12:46:54;;;;;;;9.38;6.22;;;;;;;;;;5002602;28;20090;-79
2022/01/17 12:49:20;;;;;;;10.90;6.40;;;;;;;;;;4999382;28;20030;-78
2022/01/17 12:51:48;;;;;;;8.02;5.60;;;;;;;;;;5000669;28;20022;-79
2022/01/17 12:54:20;;;;;;;10.02;6.20;;;;;;;;;;5001766;28;20026;-80
2022/01/17 12:56:51;;;;;;;12.48;7.50;;;;;;;;;;5001490;28;20493;-79
2022/01/17 12:59:17;;;;;;;9.27;5.70;;;;;;;;;;5000922;28;20019;-80
2022/01/17 13:01:44;;;;;;;10.40;5.57;;;;;;;;;;5000270;28;20029;-79
2022/01/17 13:04:12;;;;;;;11.00;5.75;;;;;;;;;;5001390;28;20063;-80
2022/01/17 13:06:38;;;;;;;10.65;5.88;;;;;;;;;;5000267;28;20030;-79
2022/01/17 13:09:09;;;;;;;10.43;6.28;;;;;;;;;;5002333;28;20073;-80
2022/01/17 13:11:38;;;;;;;9.70;5.10;;;;;;;;;;5004376;28;20038;-79
2022/01/17 13:14:04;;;;;;;9.48;5.97;;;;;;;;;;5004983;28;20059;-80
2022/01/17 13:16:39;;;;;;;11.18;5.93;;;;;;;;;;4986452;28;20121;-79
2022/01/17 13:19:06;;;;;;;12.60;6.40;;;;;;;;;;4985109;28;20023;-78
2022/01/17 13:21:33;;;;;;;9.88;6.53;;;;;;;;;;4983158;28;20026;-79
2022/01/17 13:24:13;;;;;;;10.25;5.95;;;;;;;;;;4986418;28;20030;-78
2022/01/17 13:27:03;;;;;;;9.27;5.20;;;;;;;;;;4985283;28;20038;-78
2022/01/17 13:29:36;;;;;;;10.73;5.80;;;;;;;;;;4978632;28;20053;-79
2022/01/17 13:32:04;;;;;;;9.10;6.05;;;;;;;;;;4984269;28;20034;-80
2022/01/17 13:34:31;;;;;;;11.50;7.07;;;;;;;;;;4999896;28;20054;-80
2022/01/17 13:37:01;;;;;;;8.60;5.57;;;;;;;;;;5001111;28;20022;-80
2022/01/17 13:39:27;;;;;;;9.95;6.20;;;;;;;;;;4985257;28;20034;-79
2022/01/17 13:41:58;;;;;;;10.10;5.85;;;;;;;;;;4982157;28;20458;-78
2022/01/17 13:44:26;;;;;;;8.93;6.50;;;;;;;;;;4999242;28;20026;-79
2022/01/17 13:46:56;;;;;;;7.97;4.85;;;;;;;;;;4982163;28;20509;-79
2022/01/17 13:49:23;;;;;;;8.70;5.25;;;;;;;;;;4984252;28;20474;-79
2022/01/17 13:51:49;;;;;;;8.50;5.13;;;;;;;;;;5002155;28;20026;-79
2022/01/17 13:54:30;;;;;;;10.25;4.68;;;;;;;;;;4988309;28;20030;-79
2022/01/17 13:56:57;;;;;;;8.18;5.10;;;;;;;;;;4982614;28;20043;-79
2022/01/17 13:59:23;;;;;;;8.00;4.88;;;;;;;;;;4983526;28;20023;-79
2022/01/17 14:01:50;;;;;;;9.90;5.60;;;;;;;;;;4982509;28;20028;-79
2022/01/17 14:04:20;;;;;;;8.45;5.07;;;;;;;;;;4982252;28;20105;-80
2022/01/17 14:06:47;;;;;;;8.90;5.55;;;;;;;;;;4982982;28;20027;-81
2022/01/17 14:12:17;;;;;;;8.40;4.68;;;;;;;;;;4999816;28;20084;-81
2022/01/17 14:14:51;;;;;;;8.75;5.13;;;;;;;;;;4998187;28;20073;-80
2022/01/17 14:17:30;;;;;;;9.27;5.07;;;;;;;;;;5000927;28;20531;-80
2022/01/17 14:20:12;;;;;;;7.80;4.53;;;;;;;;;;5000689;28;20026;-80
2022/01/17 14:22:45;;;;;;;7.95;4.93;;;;;;;;;;4997470;28;20033;-80
2022/01/17 14:25:27;;;;;;;8.38;4.53;;;;;;;;;;4981903;28;20035;-80
2022/01/17 14:28:03;;;;;;;17.02;5.75;;;;;;;;;;4981674;28;20026;-80
2022/01/17 14:30:31;;;;;;;8.50;4.20;;;;;;;;;;4984541;28;20336;-81
2022/01/17 14:33:13;;;;;;;9.77;4.70;;;;;;;;;;4999890;28;20039;-79
2022/01/17 14:36:00;;;;;;;8.10;4.88;;;;;;;;;;4983324;28;20583;-80
2022/01/17 14:38:26;;;;;;;8.43;4.55;;;;;;;;;;4968123;28;20037;-79
2022/01/17 14:41:16;;;;;;;12.35;4.97;;;;;;;;;;4981515;28;20077;-79
2022/01/17 14:46:49;;;;;;;7.22;4.15;;;;;;;;;;4982583;28;20046;-81
2022/01/17 14:49:19;;;;;;;9.05;4.80;;;;;;;;;;4983278;28;20026;-79
2022/01/17 14:51:53;;;;;;;7.45;4.60;;;;;;;;;;4981618;28;20023;-81
2022/01/17 14:54:29;;;;;;;9.20;4.57;;;;;;;;;;4978231;28;20528;-79
2022/01/17 14:59:51;;;;;;;7.55;4.88;;;;;;;;;;4995599;28;20069;-80
2022/01/17 15:02:21;;;;;;;9.30;5.60;;;;;;;;;;4991547;28;20011;-81
2022/01/17 15:04:48;;;;;;;8.63;4.88;;;;;;;;;;4984973;28;20026;-81
2022/01/17 15:07:16;;;;;;;9.18;4.70;;;;;;;;;;4999926;28;20034;-81
2022/01/17 15:09:45;;;;;;;7.93;4.45;;;;;;;;;;4995417;28;20442;-80
2022/01/17 15:12:12;;;;;;;8.27;4.40;;;;;;;;;;4995539;28;20456;-81
2022/01/17 15:14:39;;;;;;;7.35;4.45;;;;;;;;;;5011008;28;20073;-81